sensor_id;sensor_type;location;lat;lon;timestamp;P1;durP1;ratioP1;P2;durP2;ratioP2
52512;SDS011;38422;53.172;6.974;2024-01-30T00:01:51;11.13;;;7.47;;
52512;SDS011;38422;53.172;6.974;2024-01-30T00:04:17;11.93;;;8.27;;
52512;SDS011;38422;53.172;6.974;2024-01-30T00:06:43;10.75;;;8.43;;
52512;SDS011;38422;53.172;6.974;2024-01-30T00:09:09;14.90;;;8.45;;
52512;SDS011;38422;53.172;6.974;2024-01-30T00:11:36;10.25;;;8.23;;
52512;SDS011;38422;53.172;6.974;2024-01-30T00:14:02;14.90;;;8.57;;
52512;SDS011;38422;53.172;6.974;2024-01-30T00:16:28;11.43;;;8.48;;
52512;SDS011;38422;53.172;6.974;2024-01-30T00:18:54;11.60;;;8.35;;
52512;SDS011;38422;53.172;6.974;2024-01-30T00:21:20;11.13;;;8.20;;
52512;SDS011;38422;53.172;6.974;2024-01-30T00:23:46;11.75;;;7.70;;
52512;SDS011;38422;53.172;6.974;2024-01-30T00:26:12;13.18;;;8.32;;
52512;SDS011;38422;53.172;6.974;2024-01-30T00:31:05;13.30;;;8.90;;
52512;SDS011;38422;53.172;6.974;2024-01-30T00:33:31;12.43;;;9.40;;
52512;SDS011;38422;53.172;6.974;2024-01-30T00:35:57;12.45;;;8.52;;
52512;SDS011;38422;53.172;6.974;2024-01-30T00:38:23;13.68;;;9.02;;
52512;SDS011;38422;53.172;6.974;2024-01-30T00:40:48;13.82;;;8.05;;
52512;SDS011;38422;53.172;6.974;2024-01-30T00:43:15;11.10;;;7.95;;
52512;SDS011;38422;53.172;6.974;2024-01-30T00:45:41;13.00;;;8.07;;
52512;SDS011;38422;53.172;6.974;2024-01-30T00:48:09;11.85;;;8.52;;
52512;SDS011;38422;53.172;6.974;2024-01-30T00:50:34;11.55;;;8.60;;
52512;SDS011;38422;53.172;6.974;2024-01-30T00:53:00;13.38;;;9.00;;
52512;SDS011;38422;53.172;6.974;2024-01-30T00:55:26;13.30;;;8.85;;
52512;SDS011;38422;53.172;6.974;2024-01-30T00:57:51;12.15;;;8.73;;
52512;SDS011;38422;53.172;6.974;2024-01-30T01:00:17;13.02;;;8.43;;
52512;SDS011;38422;53.172;6.974;2024-01-30T01:02:43;12.05;;;8.30;;
52512;SDS011;38422;53.172;6.974;2024-01-30T01:05:09;11.13;;;8.53;;
52512;SDS011;38422;53.172;6.974;2024-01-30T01:07:35;14.07;;;8.85;;
52512;SDS011;38422;53.172;6.974;2024-01-30T01:10:01;12.68;;;8.30;;
52512;SDS011;38422;53.172;6.974;2024-01-30T01:12:27;14.48;;;8.75;;
52512;SDS011;38422;53.172;6.974;2024-01-30T01:14:53;13.13;;;8.68;;
52512;SDS011;38422;53.172;6.974;2024-01-30T01:17:19;12.07;;;8.50;;
52512;SDS011;38422;53.172;6.974;2024-01-30T01:19:44;13.02;;;8.25;;
52512;SDS011;38422;53.172;6.974;2024-01-30T01:22:10;11.68;;;8.10;;
52512;SDS011;38422;53.172;6.974;2024-01-30T01:24:36;13.25;;;8.65;;
52512;SDS011;38422;53.172;6.974;2024-01-30T01:27:02;12.52;;;8.52;;
52512;SDS011;38422;53.172;6.974;2024-01-30T01:29:28;13.82;;;8.85;;
52512;SDS011;38422;53.172;6.974;2024-01-30T01:31:54;14.57;;;8.73;;
52512;SDS011;38422;53.172;6.974;2024-01-30T01:34:21;12.40;;;8.25;;
52512;SDS011;38422;53.172;6.974;2024-01-30T01:36:46;11.65;;;8.48;;
52512;SDS011;38422;53.172;6.974;2024-01-30T01:39:12;12.32;;;8.52;;
52512;SDS011;38422;53.172;6.974;2024-01-30T01:41:38;12.10;;;8.50;;
52512;SDS011;38422;53.172;6.974;2024-01-30T01:44:03;13.15;;;8.32;;
52512;SDS011;38422;53.172;6.974;2024-01-30T01:46:30;13.60;;;7.87;;
52512;SDS011;38422;53.172;6.974;2024-01-30T01:48:58;11.23;;;7.93;;
52512;SDS011;38422;53.172;6.974;2024-01-30T01:51:27;14.02;;;8.50;;
52512;SDS011;38422;53.172;6.974;2024-01-30T01:56:21;11.55;;;7.80;;
52512;SDS011;38422;53.172;6.974;2024-01-30T01:58:48;11.65;;;8.07;;
52512;SDS011;38422;53.172;6.974;2024-01-30T02:01:16;12.80;;;8.30;;
52512;SDS011;38422;53.172;6.974;2024-01-30T02:03:45;12.02;;;8.00;;
52512;SDS011;38422;53.172;6.974;2024-01-30T02:06:12;10.35;;;7.43;;
52512;SDS011;38422;53.172;6.974;2024-01-30T02:08:41;10.80;;;7.45;;
52512;SDS011;38422;53.172;6.974;2024-01-30T02:11:07;11.50;;;7.93;;
52512;SDS011;38422;53.172;6.974;2024-01-30T02:13:34;10.93;;;7.70;;
52512;SDS011;38422;53.172;6.974;2024-01-30T02:15:59;12.77;;;7.32;;
52512;SDS011;38422;53.172;6.974;2024-01-30T02:18:26;11.70;;;8.00;;
52512;SDS011;38422;53.172;6.974;2024-01-30T02:20:54;11.20;;;7.60;;
52512;SDS011;38422;53.172;6.974;2024-01-30T02:23:24;11.40;;;7.32;;
52512;SDS011;38422;53.172;6.974;2024-01-30T02:25:50;13.02;;;7.57;;
52512;SDS011;38422;53.172;6.974;2024-01-30T02:28:18;11.55;;;7.35;;
52512;SDS011;38422;53.172;6.974;2024-01-30T02:30:45;10.50;;;7.47;;
52512;SDS011;38422;53.172;6.974;2024-01-30T02:33:12;10.90;;;7.03;;
52512;SDS011;38422;53.172;6.974;2024-01-30T02:35:37;11.32;;;7.25;;
52512;SDS011;38422;53.172;6.974;2024-01-30T02:38:03;11.68;;;7.65;;
52512;SDS011;38422;53.172;6.974;2024-01-30T02:40:30;13.43;;;8.23;;
52512;SDS011;38422;53.172;6.974;2024-01-30T02:42:56;9.43;;;7.40;;
52512;SDS011;38422;53.172;6.974;2024-01-30T02:45:23;12.05;;;7.55;;
52512;SDS011;38422;53.172;6.974;2024-01-30T02:47:48;11.25;;;7.63;;
52512;SDS011;38422;53.172;6.974;2024-01-30T02:50:14;9.93;;;7.80;;
52512;SDS011;38422;53.172;6.974;2024-01-30T02:52:41;11.70;;;7.63;;
52512;SDS011;38422;53.172;6.974;2024-01-30T02:55:09;11.18;;;8.32;;
52512;SDS011;38422;53.172;6.974;2024-01-30T02:57:35;11.38;;;8.10;;
52512;SDS011;38422;53.172;6.974;2024-01-30T03:00:00;11.35;;;7.95;;
52512;SDS011;38422;53.172;6.974;2024-01-30T03:02:26;12.23;;;7.15;;
52512;SDS011;38422;53.172;6.974;2024-01-30T03:04:52;11.88;;;7.63;;
52512;SDS011;38422;53.172;6.974;2024-01-30T03:07:18;11.88;;;8.25;;
52512;SDS011;38422;53.172;6.974;2024-01-30T03:09:43;13.85;;;8.65;;
52512;SDS011;38422;53.172;6.974;2024-01-30T03:12:09;11.05;;;8.05;;
52512;SDS011;38422;53.172;6.974;2024-01-30T03:14:35;13.38;;;9.05;;
52512;SDS011;38422;53.172;6.974;2024-01-30T03:17:01;11.77;;;8.63;;
52512;SDS011;38422;53.172;6.974;2024-01-30T03:19:27;13.20;;;9.05;;
52512;SDS011;38422;53.172;6.974;2024-01-30T03:21:53;10.88;;;8.50;;
52512;SDS011;38422;53.172;6.974;2024-01-30T03:24:19;12.85;;;8.43;;
52512;SDS011;38422;53.172;6.974;2024-01-30T03:26:44;12.27;;;7.97;;
52512;SDS011;38422;53.172;6.974;2024-01-30T03:29:10;11.88;;;7.93;;
52512;SDS011;38422;53.172;6.974;2024-01-30T03:31:36;13.27;;;8.57;;
52512;SDS011;38422;53.172;6.974;2024-01-30T03:34:02;11.65;;;7.82;;
52512;SDS011;38422;53.172;6.974;2024-01-30T03:36:27;11.63;;;8.38;;
52512;SDS011;38422;53.172;6.974;2024-01-30T03:38:53;14.82;;;8.15;;
52512;SDS011;38422;53.172;6.974;2024-01-30T03:41:19;11.23;;;8.00;;
52512;SDS011;38422;53.172;6.974;2024-01-30T03:43:45;8.40;;;6.65;;
52512;SDS011;38422;53.172;6.974;2024-01-30T03:46:11;15.73;;;8.43;;
52512;SDS011;38422;53.172;6.974;2024-01-30T03:48:37;11.20;;;8.00;;
52512;SDS011;38422;53.172;6.974;2024-01-30T03:51:04;11.85;;;8.20;;
52512;SDS011;38422;53.172;6.974;2024-01-30T03:53:30;11.90;;;8.02;;
52512;SDS011;38422;53.172;6.974;2024-01-30T03:55:56;11.23;;;7.93;;
52512;SDS011;38422;53.172;6.974;2024-01-30T03:58:21;10.55;;;7.72;;
52512;SDS011;38422;53.172;6.974;2024-01-30T04:00:47;12.70;;;8.57;;
52512;SDS011;38422;53.172;6.974;2024-01-30T04:03:16;11.40;;;7.53;;
52512;SDS011;38422;53.172;6.974;2024-01-30T04:05:42;11.93;;;7.88;;
52512;SDS011;38422;53.172;6.974;2024-01-30T04:08:08;10.70;;;8.15;;
52512;SDS011;38422;53.172;6.974;2024-01-30T04:10:33;11.13;;;8.18;;
52512;SDS011;38422;53.172;6.974;2024-01-30T04:12:59;10.73;;;7.78;;
52512;SDS011;38422;53.172;6.974;2024-01-30T04:15:25;14.05;;;8.68;;
52512;SDS011;38422;53.172;6.974;2024-01-30T04:17:51;12.88;;;8.43;;
52512;SDS011;38422;53.172;6.974;2024-01-30T04:20:17;11.50;;;8.20;;
52512;SDS011;38422;53.172;6.974;2024-01-30T04:22:46;11.85;;;7.82;;
52512;SDS011;38422;53.172;6.974;2024-01-30T04:25:13;11.25;;;7.90;;
52512;SDS011;38422;53.172;6.974;2024-01-30T04:27:38;10.50;;;7.72;;
52512;SDS011;38422;53.172;6.974;2024-01-30T04:30:04;14.35;;;8.40;;
52512;SDS011;38422;53.172;6.974;2024-01-30T04:32:31;13.77;;;8.02;;
52512;SDS011;38422;53.172;6.974;2024-01-30T04:34:57;12.48;;;8.55;;
52512;SDS011;38422;53.172;6.974;2024-01-30T04:37:23;11.45;;;8.27;;
52512;SDS011;38422;53.172;6.974;2024-01-30T04:39:50;12.60;;;8.00;;
52512;SDS011;38422;53.172;6.974;2024-01-30T04:42:16;13.35;;;8.60;;
52512;SDS011;38422;53.172;6.974;2024-01-30T04:44:42;11.52;;;8.32;;
52512;SDS011;38422;53.172;6.974;2024-01-30T04:47:08;10.73;;;7.95;;
52512;SDS011;38422;53.172;6.974;2024-01-30T04:49:36;12.27;;;8.00;;
52512;SDS011;38422;53.172;6.974;2024-01-30T04:52:02;11.05;;;8.07;;
52512;SDS011;38422;53.172;6.974;2024-01-30T04:54:27;10.65;;;7.75;;
52512;SDS011;38422;53.172;6.974;2024-01-30T04:56:53;10.38;;;7.97;;
52512;SDS011;38422;53.172;6.974;2024-01-30T04:59:19;11.73;;;8.15;;
52512;SDS011;38422;53.172;6.974;2024-01-30T05:01:44;12.35;;;8.30;;
52512;SDS011;38422;53.172;6.974;2024-01-30T05:04:10;10.70;;;8.18;;
52512;SDS011;38422;53.172;6.974;2024-01-30T05:06:36;11.68;;;8.07;;
52512;SDS011;38422;53.172;6.974;2024-01-30T05:09:02;11.48;;;7.95;;
52512;SDS011;38422;53.172;6.974;2024-01-30T05:11:30;10.90;;;8.10;;
52512;SDS011;38422;53.172;6.974;2024-01-30T05:13:56;13.45;;;8.50;;
52512;SDS011;38422;53.172;6.974;2024-01-30T05:16:22;11.55;;;8.07;;
52512;SDS011;38422;53.172;6.974;2024-01-30T05:18:47;11.40;;;8.18;;
52512;SDS011;38422;53.172;6.974;2024-01-30T05:21:13;11.82;;;7.70;;
52512;SDS011;38422;53.172;6.974;2024-01-30T05:23:39;12.55;;;8.93;;
52512;SDS011;38422;53.172;6.974;2024-01-30T05:26:06;12.07;;;7.95;;
52512;SDS011;38422;53.172;6.974;2024-01-30T05:28:33;11.77;;;8.32;;
52512;SDS011;38422;53.172;6.974;2024-01-30T05:30:58;13.48;;;8.07;;
52512;SDS011;38422;53.172;6.974;2024-01-30T05:33:24;13.60;;;8.02;;
52512;SDS011;38422;53.172;6.974;2024-01-30T05:35:50;10.23;;;8.10;;
52512;SDS011;38422;53.172;6.974;2024-01-30T05:38:19;11.55;;;8.68;;
52512;SDS011;38422;53.172;6.974;2024-01-30T05:40:45;11.30;;;8.23;;
52512;SDS011;38422;53.172;6.974;2024-01-30T05:43:11;12.73;;;8.65;;
52512;SDS011;38422;53.172;6.974;2024-01-30T05:45:37;11.05;;;7.95;;
52512;SDS011;38422;53.172;6.974;2024-01-30T05:48:03;13.13;;;8.32;;
52512;SDS011;38422;53.172;6.974;2024-01-30T05:50:29;12.27;;;8.63;;
52512;SDS011;38422;53.172;6.974;2024-01-30T05:52:55;13.57;;;8.65;;
52512;SDS011;38422;53.172;6.974;2024-01-30T05:55:21;13.10;;;8.82;;
52512;SDS011;38422;53.172;6.974;2024-01-30T05:57:46;12.57;;;8.57;;
52512;SDS011;38422;53.172;6.974;2024-01-30T06:00:12;13.80;;;8.68;;
52512;SDS011;38422;53.172;6.974;2024-01-30T06:02:38;13.65;;;8.85;;
52512;SDS011;38422;53.172;6.974;2024-01-30T06:05:04;10.52;;;7.97;;
52512;SDS011;38422;53.172;6.974;2024-01-30T06:07:30;13.10;;;8.90;;
52512;SDS011;38422;53.172;6.974;2024-01-30T06:09:56;13.68;;;8.95;;
52512;SDS011;38422;53.172;6.974;2024-01-30T06:12:21;12.20;;;8.73;;
52512;SDS011;38422;53.172;6.974;2024-01-30T06:14:47;14.05;;;8.65;;
52512;SDS011;38422;53.172;6.974;2024-01-30T06:17:13;12.23;;;8.80;;
52512;SDS011;38422;53.172;6.974;2024-01-30T06:19:38;13.07;;;8.52;;
52512;SDS011;38422;53.172;6.974;2024-01-30T06:22:04;12.10;;;8.75;;
52512;SDS011;38422;53.172;6.974;2024-01-30T06:24:30;10.80;;;8.20;;
52512;SDS011;38422;53.172;6.974;2024-01-30T06:26:56;14.25;;;8.68;;
52512;SDS011;38422;53.172;6.974;2024-01-30T06:29:22;15.05;;;8.55;;
52512;SDS011;38422;53.172;6.974;2024-01-30T06:31:49;12.82;;;8.48;;
52512;SDS011;38422;53.172;6.974;2024-01-30T06:34:15;11.68;;;8.50;;
52512;SDS011;38422;53.172;6.974;2024-01-30T06:36:41;13.18;;;8.73;;
52512;SDS011;38422;53.172;6.974;2024-01-30T06:39:07;13.48;;;9.07;;
52512;SDS011;38422;53.172;6.974;2024-01-30T06:41:33;13.45;;;8.27;;
52512;SDS011;38422;53.172;6.974;2024-01-30T06:43:58;10.77;;;8.02;;
52512;SDS011;38422;53.172;6.974;2024-01-30T06:46:24;11.35;;;7.90;;
52512;SDS011;38422;53.172;6.974;2024-01-30T06:48:50;11.60;;;7.20;;
52512;SDS011;38422;53.172;6.974;2024-01-30T06:51:16;10.68;;;7.63;;
52512;SDS011;38422;53.172;6.974;2024-01-30T06:53:41;12.45;;;7.85;;
52512;SDS011;38422;53.172;6.974;2024-01-30T06:56:07;12.15;;;7.65;;
52512;SDS011;38422;53.172;6.974;2024-01-30T06:58:33;10.85;;;7.10;;
52512;SDS011;38422;53.172;6.974;2024-01-30T07:00:58;11.60;;;6.97;;
52512;SDS011;38422;53.172;6.974;2024-01-30T07:03:24;11.73;;;7.28;;
52512;SDS011;38422;53.172;6.974;2024-01-30T07:05:50;9.43;;;6.40;;
52512;SDS011;38422;53.172;6.974;2024-01-30T07:08:16;9.77;;;7.03;;
52512;SDS011;38422;53.172;6.974;2024-01-30T07:10:43;12.75;;;7.07;;
52512;SDS011;38422;53.172;6.974;2024-01-30T07:13:10;11.63;;;7.40;;
52512;SDS011;38422;53.172;6.974;2024-01-30T07:15:36;11.48;;;7.85;;
52512;SDS011;38422;53.172;6.974;2024-01-30T07:18:02;12.13;;;7.30;;
52512;SDS011;38422;53.172;6.974;2024-01-30T07:20:28;9.52;;;6.68;;
52512;SDS011;38422;53.172;6.974;2024-01-30T07:22:55;10.13;;;6.60;;
52512;SDS011;38422;53.172;6.974;2024-01-30T07:25:21;11.60;;;7.28;;
52512;SDS011;38422;53.172;6.974;2024-01-30T07:27:51;11.48;;;7.03;;
52512;SDS011;38422;53.172;6.974;2024-01-30T07:30:20;14.02;;;7.25;;
52512;SDS011;38422;53.172;6.974;2024-01-30T07:32:46;14.18;;;7.40;;
52512;SDS011;38422;53.172;6.974;2024-01-30T07:35:12;12.13;;;7.50;;
52512;SDS011;38422;53.172;6.974;2024-01-30T07:37:38;11.27;;;7.40;;
52512;SDS011;38422;53.172;6.974;2024-01-30T07:40:04;10.88;;;7.25;;
52512;SDS011;38422;53.172;6.974;2024-01-30T07:42:31;10.35;;;7.05;;
52512;SDS011;38422;53.172;6.974;2024-01-30T07:44:58;11.52;;;7.72;;
52512;SDS011;38422;53.172;6.974;2024-01-30T07:47:24;11.00;;;6.78;;
52512;SDS011;38422;53.172;6.974;2024-01-30T07:49:50;10.95;;;7.05;;
52512;SDS011;38422;53.172;6.974;2024-01-30T07:52:16;12.65;;;6.97;;
52512;SDS011;38422;53.172;6.974;2024-01-30T07:54:48;11.00;;;7.13;;
52512;SDS011;38422;53.172;6.974;2024-01-30T07:57:14;10.57;;;6.72;;
52512;SDS011;38422;53.172;6.974;2024-01-30T07:59:42;9.85;;;5.70;;
52512;SDS011;38422;53.172;6.974;2024-01-30T08:02:09;8.30;;;5.00;;
52512;SDS011;38422;53.172;6.974;2024-01-30T08:04:35;10.50;;;5.63;;
52512;SDS011;38422;53.172;6.974;2024-01-30T08:07:01;10.70;;;5.68;;
52512;SDS011;38422;53.172;6.974;2024-01-30T08:09:26;8.88;;;5.53;;
52512;SDS011;38422;53.172;6.974;2024-01-30T08:11:52;8.75;;;5.70;;
52512;SDS011;38422;53.172;6.974;2024-01-30T08:14:18;12.88;;;6.38;;
52512;SDS011;38422;53.172;6.974;2024-01-30T08:16:44;11.88;;;5.80;;
52512;SDS011;38422;53.172;6.974;2024-01-30T08:19:09;9.48;;;5.72;;
52512;SDS011;38422;53.172;6.974;2024-01-30T08:21:35;9.57;;;5.63;;
52512;SDS011;38422;53.172;6.974;2024-01-30T08:24:04;8.30;;;5.20;;
52512;SDS011;38422;53.172;6.974;2024-01-30T08:26:31;9.88;;;6.00;;
52512;SDS011;38422;53.172;6.974;2024-01-30T08:28:57;10.37;;;5.80;;
52512;SDS011;38422;53.172;6.974;2024-01-30T08:31:23;10.10;;;6.13;;
52512;SDS011;38422;53.172;6.974;2024-01-30T08:33:49;9.60;;;6.10;;
52512;SDS011;38422;53.172;6.974;2024-01-30T08:36:15;12.30;;;5.82;;
52512;SDS011;38422;53.172;6.974;2024-01-30T08:38:42;10.60;;;6.17;;
52512;SDS011;38422;53.172;6.974;2024-01-30T08:41:07;12.30;;;5.80;;
52512;SDS011;38422;53.172;6.974;2024-01-30T08:43:33;9.77;;;5.43;;
52512;SDS011;38422;53.172;6.974;2024-01-30T08:45:59;10.85;;;5.50;;
52512;SDS011;38422;53.172;6.974;2024-01-30T08:48:25;11.60;;;5.93;;
52512;SDS011;38422;53.172;6.974;2024-01-30T08:50:52;11.10;;;5.90;;
52512;SDS011;38422;53.172;6.974;2024-01-30T08:53:18;10.55;;;5.90;;
52512;SDS011;38422;53.172;6.974;2024-01-30T08:55:44;8.82;;;5.68;;
52512;SDS011;38422;53.172;6.974;2024-01-30T08:58:10;8.93;;;5.45;;
52512;SDS011;38422;53.172;6.974;2024-01-30T09:00:35;11.20;;;6.25;;
52512;SDS011;38422;53.172;6.974;2024-01-30T09:03:01;10.23;;;5.47;;
52512;SDS011;38422;53.172;6.974;2024-01-30T09:05:28;9.80;;;5.73;;
52512;SDS011;38422;53.172;6.974;2024-01-30T09:07:54;10.10;;;5.80;;
52512;SDS011;38422;53.172;6.974;2024-01-30T09:10:19;9.05;;;5.40;;
52512;SDS011;38422;53.172;6.974;2024-01-30T09:12:46;9.68;;;5.40;;
52512;SDS011;38422;53.172;6.974;2024-01-30T09:15:12;9.07;;;5.03;;
52512;SDS011;38422;53.172;6.974;2024-01-30T09:17:37;11.32;;;5.15;;
52512;SDS011;38422;53.172;6.974;2024-01-30T09:20:04;11.02;;;5.07;;
52512;SDS011;38422;53.172;6.974;2024-01-30T09:22:30;8.57;;;5.20;;
52512;SDS011;38422;53.172;6.974;2024-01-30T09:24:56;8.65;;;4.35;;
52512;SDS011;38422;53.172;6.974;2024-01-30T09:27:22;9.52;;;4.93;;
52512;SDS011;38422;53.172;6.974;2024-01-30T09:29:48;8.73;;;4.68;;
52512;SDS011;38422;53.172;6.974;2024-01-30T09:32:14;13.43;;;5.93;;
52512;SDS011;38422;53.172;6.974;2024-01-30T09:34:40;12.15;;;5.95;;
52512;SDS011;38422;53.172;6.974;2024-01-30T09:37:06;11.38;;;5.13;;
52512;SDS011;38422;53.172;6.974;2024-01-30T09:39:32;8.73;;;5.05;;
52512;SDS011;38422;53.172;6.974;2024-01-30T09:44:39;10.30;;;5.47;;
52512;SDS011;38422;53.172;6.974;2024-01-30T09:47:08;7.80;;;4.95;;
52512;SDS011;38422;53.172;6.974;2024-01-30T09:49:35;8.43;;;4.38;;
52512;SDS011;38422;53.172;6.974;2024-01-30T09:52:02;8.13;;;4.72;;
52512;SDS011;38422;53.172;6.974;2024-01-30T09:54:32;9.38;;;4.93;;
52512;SDS011;38422;53.172;6.974;2024-01-30T09:56:58;8.55;;;4.97;;
52512;SDS011;38422;53.172;6.974;2024-01-30T09:59:24;8.20;;;4.63;;
52512;SDS011;38422;53.172;6.974;2024-01-30T10:01:50;9.50;;;5.43;;
52512;SDS011;38422;53.172;6.974;2024-01-30T10:04:16;10.45;;;5.80;;
52512;SDS011;38422;53.172;6.974;2024-01-30T10:06:42;7.78;;;4.93;;
52512;SDS011;38422;53.172;6.974;2024-01-30T10:09:08;7.53;;;4.65;;
52512;SDS011;38422;53.172;6.974;2024-01-30T10:11:38;10.10;;;5.65;;
52512;SDS011;38422;53.172;6.974;2024-01-30T10:14:04;8.70;;;5.18;;
52512;SDS011;38422;53.172;6.974;2024-01-30T10:16:29;8.80;;;5.05;;
52512;SDS011;38422;53.172;6.974;2024-01-30T10:18:55;8.10;;;5.13;;
52512;SDS011;38422;53.172;6.974;2024-01-30T10:21:21;7.90;;;4.50;;
52512;SDS011;38422;53.172;6.974;2024-01-30T10:23:46;8.70;;;4.75;;
52512;SDS011;38422;53.172;6.974;2024-01-30T10:26:12;10.48;;;5.22;;
52512;SDS011;38422;53.172;6.974;2024-01-30T10:28:39;6.82;;;4.40;;
52512;SDS011;38422;53.172;6.974;2024-01-30T10:31:04;9.13;;;4.47;;
52512;SDS011;38422;53.172;6.974;2024-01-30T10:33:30;10.40;;;4.60;;
52512;SDS011;38422;53.172;6.974;2024-01-30T10:35:59;8.98;;;4.68;;
52512;SDS011;38422;53.172;6.974;2024-01-30T10:38:30;11.63;;;5.40;;
52512;SDS011;38422;53.172;6.974;2024-01-30T10:40:58;10.40;;;4.90;;
52512;SDS011;38422;53.172;6.974;2024-01-30T10:43:39;9.95;;;4.97;;
52512;SDS011;38422;53.172;6.974;2024-01-30T10:48:46;9.45;;;4.95;;
52512;SDS011;38422;53.172;6.974;2024-01-30T10:51:16;11.98;;;5.20;;
52512;SDS011;38422;53.172;6.974;2024-01-30T10:53:43;10.10;;;4.55;;
52512;SDS011;38422;53.172;6.974;2024-01-30T10:56:11;11.18;;;5.30;;
52512;SDS011;38422;53.172;6.974;2024-01-30T10:58:39;8.95;;;5.07;;
52512;SDS011;38422;53.172;6.974;2024-01-30T11:01:05;8.88;;;5.25;;
52512;SDS011;38422;53.172;6.974;2024-01-30T11:03:32;8.27;;;5.00;;
52512;SDS011;38422;53.172;6.974;2024-01-30T11:06:01;11.25;;;5.78;;
52512;SDS011;38422;53.172;6.974;2024-01-30T11:08:28;9.40;;;5.50;;
52512;SDS011;38422;53.172;6.974;2024-01-30T11:10:55;9.48;;;4.97;;
52512;SDS011;38422;53.172;6.974;2024-01-30T11:13:22;9.85;;;5.25;;
52512;SDS011;38422;53.172;6.974;2024-01-30T11:15:51;8.57;;;5.43;;
52512;SDS011;38422;53.172;6.974;2024-01-30T11:18:26;11.02;;;6.20;;
52512;SDS011;38422;53.172;6.974;2024-01-30T11:20:55;11.82;;;6.40;;
52512;SDS011;38422;53.172;6.974;2024-01-30T11:23:23;10.77;;;6.47;;
52512;SDS011;38422;53.172;6.974;2024-01-30T11:25:48;12.43;;;6.38;;
52512;SDS011;38422;53.172;6.974;2024-01-30T11:28:17;9.88;;;6.38;;
52512;SDS011;38422;53.172;6.974;2024-01-30T11:30:43;11.73;;;5.40;;
52512;SDS011;38422;53.172;6.974;2024-01-30T11:33:10;12.90;;;5.55;;
52512;SDS011;38422;53.172;6.974;2024-01-30T11:38:06;13.00;;;5.07;;
52512;SDS011;38422;53.172;6.974;2024-01-30T11:40:33;11.30;;;5.18;;
52512;SDS011;38422;53.172;6.974;2024-01-30T11:43:01;10.77;;;5.18;;
52512;SDS011;38422;53.172;6.974;2024-01-30T11:47:54;11.45;;;5.63;;
52512;SDS011;38422;53.172;6.974;2024-01-30T11:50:20;9.65;;;5.63;;
52512;SDS011;38422;53.172;6.974;2024-01-30T11:52:47;9.88;;;5.00;;
52512;SDS011;38422;53.172;6.974;2024-01-30T11:55:13;12.63;;;5.53;;
52512;SDS011;38422;53.172;6.974;2024-01-30T11:57:40;8.23;;;5.40;;
52512;SDS011;38422;53.172;6.974;2024-01-30T12:00:06;9.57;;;5.35;;
52512;SDS011;38422;53.172;6.974;2024-01-30T12:02:39;12.73;;;5.93;;
52512;SDS011;38422;53.172;6.974;2024-01-30T12:05:06;10.63;;;5.37;;
52512;SDS011;38422;53.172;6.974;2024-01-30T12:07:32;8.68;;;5.43;;
52512;SDS011;38422;53.172;6.974;2024-01-30T12:09:58;8.83;;;5.57;;
52512;SDS011;38422;53.172;6.974;2024-01-30T12:12:25;13.80;;;5.95;;
52512;SDS011;38422;53.172;6.974;2024-01-30T12:14:52;8.90;;;5.72;;
52512;SDS011;38422;53.172;6.974;2024-01-30T12:17:28;10.32;;;5.95;;
52512;SDS011;38422;53.172;6.974;2024-01-30T12:22:41;11.20;;;6.18;;
52512;SDS011;38422;53.172;6.974;2024-01-30T12:25:11;10.02;;;5.70;;
52512;SDS011;38422;53.172;6.974;2024-01-30T12:27:38;11.80;;;5.03;;
52512;SDS011;38422;53.172;6.974;2024-01-30T12:30:08;11.20;;;4.53;;
52512;SDS011;38422;53.172;6.974;2024-01-30T12:32:42;10.13;;;4.40;;
52512;SDS011;38422;53.172;6.974;2024-01-30T12:35:12;8.82;;;3.65;;
52512;SDS011;38422;53.172;6.974;2024-01-30T12:37:43;8.20;;;3.50;;
52512;SDS011;38422;53.172;6.974;2024-01-30T12:40:10;10.38;;;3.30;;
52512;SDS011;38422;53.172;6.974;2024-01-30T12:42:39;9.48;;;3.15;;
52512;SDS011;38422;53.172;6.974;2024-01-30T12:45:08;6.95;;;2.67;;
52512;SDS011;38422;53.172;6.974;2024-01-30T12:47:34;7.03;;;2.67;;
52512;SDS011;38422;53.172;6.974;2024-01-30T12:50:00;6.57;;;2.22;;
52512;SDS011;38422;53.172;6.974;2024-01-30T12:52:26;10.13;;;3.00;;
52512;SDS011;38422;53.172;6.974;2024-01-30T12:54:52;7.82;;;2.63;;
52512;SDS011;38422;53.172;6.974;2024-01-30T12:57:18;6.30;;;2.40;;
52512;SDS011;38422;53.172;6.974;2024-01-30T12:59:44;9.55;;;2.60;;
52512;SDS011;38422;53.172;6.974;2024-01-30T13:02:12;5.60;;;1.90;;
52512;SDS011;38422;53.172;6.974;2024-01-30T13:04:38;4.72;;;2.22;;
52512;SDS011;38422;53.172;6.974;2024-01-30T13:07:06;7.35;;;2.10;;
52512;SDS011;38422;53.172;6.974;2024-01-30T13:09:32;7.07;;;1.85;;
52512;SDS011;38422;53.172;6.974;2024-01-30T13:11:58;6.75;;;1.80;;
52512;SDS011;38422;53.172;6.974;2024-01-30T13:14:25;4.57;;;1.60;;
52512;SDS011;38422;53.172;6.974;2024-01-30T13:16:50;4.30;;;1.35;;
52512;SDS011;38422;53.172;6.974;2024-01-30T13:19:17;5.72;;;1.55;;
52512;SDS011;38422;53.172;6.974;2024-01-30T13:21:43;4.70;;;1.38;;
52512;SDS011;38422;53.172;6.974;2024-01-30T13:24:08;7.65;;;1.30;;
52512;SDS011;38422;53.172;6.974;2024-01-30T13:26:34;2.25;;;1.00;;
52512;SDS011;38422;53.172;6.974;2024-01-30T13:29:00;1.52;;;0.60;;
52512;SDS011;38422;53.172;6.974;2024-01-30T13:31:26;1.40;;;0.40;;
52512;SDS011;38422;53.172;6.974;2024-01-30T13:33:52;1.23;;;0.40;;
52512;SDS011;38422;53.172;6.974;2024-01-30T13:36:18;0.60;;;0.25;;
52512;SDS011;38422;53.172;6.974;2024-01-30T13:38:44;0.32;;;0.20;;
52512;SDS011;38422;53.172;6.974;2024-01-30T13:41:10;0.85;;;0.30;;
52512;SDS011;38422;53.172;6.974;2024-01-30T13:43:35;0.52;;;0.20;;
52512;SDS011;38422;53.172;6.974;2024-01-30T13:46:01;1.25;;;0.30;;
52512;SDS011;38422;53.172;6.974;2024-01-30T13:48:27;1.45;;;0.40;;
52512;SDS011;38422;53.172;6.974;2024-01-30T13:50:53;0.47;;;0.30;;
52512;SDS011;38422;53.172;6.974;2024-01-30T13:53:19;1.48;;;0.30;;
52512;SDS011;38422;53.172;6.974;2024-01-30T13:55:45;0.65;;;0.20;;
52512;SDS011;38422;53.172;6.974;2024-01-30T13:58:10;1.73;;;0.50;;
52512;SDS011;38422;53.172;6.974;2024-01-30T14:00:36;0.60;;;0.30;;
52512;SDS011;38422;53.172;6.974;2024-01-30T14:03:02;1.25;;;0.30;;
52512;SDS011;38422;53.172;6.974;2024-01-30T14:05:28;1.02;;;0.30;;
52512;SDS011;38422;53.172;6.974;2024-01-30T14:07:54;1.25;;;0.30;;
52512;SDS011;38422;53.172;6.974;2024-01-30T14:10:20;1.08;;;0.43;;
52512;SDS011;38422;53.172;6.974;2024-01-30T14:12:46;2.63;;;0.50;;
52512;SDS011;38422;53.172;6.974;2024-01-30T14:15:13;1.02;;;0.40;;
52512;SDS011;38422;53.172;6.974;2024-01-30T14:17:46;0.50;;;0.30;;
52512;SDS011;38422;53.172;6.974;2024-01-30T14:20:14;1.77;;;0.55;;
52512;SDS011;38422;53.172;6.974;2024-01-30T14:22:41;0.50;;;0.30;;
52512;SDS011;38422;53.172;6.974;2024-01-30T14:25:07;0.80;;;0.40;;
52512;SDS011;38422;53.172;6.974;2024-01-30T14:27:34;0.80;;;0.38;;
52512;SDS011;38422;53.172;6.974;2024-01-30T14:30:00;1.67;;;0.30;;
52512;SDS011;38422;53.172;6.974;2024-01-30T14:32:26;0.35;;;0.30;;
52512;SDS011;38422;53.172;6.974;2024-01-30T14:34:52;0.90;;;0.38;;
52512;SDS011;38422;53.172;6.974;2024-01-30T14:37:18;0.47;;;0.28;;
52512;SDS011;38422;53.172;6.974;2024-01-30T14:39:44;1.15;;;0.20;;
52512;SDS011;38422;53.172;6.974;2024-01-30T14:42:10;0.82;;;0.32;;
52512;SDS011;38422;53.172;6.974;2024-01-30T14:44:36;1.30;;;0.38;;
52512;SDS011;38422;53.172;6.974;2024-01-30T14:47:01;1.90;;;0.52;;
52512;SDS011;38422;53.172;6.974;2024-01-30T14:49:27;1.17;;;0.40;;
52512;SDS011;38422;53.172;6.974;2024-01-30T14:51:53;0.68;;;0.47;;